createdAt,value
2022-08-31T00:00:26.071Z,961.9
2022-08-31T00:01:26.076Z,961.88
2022-08-31T00:03:26.222Z,961.89
2022-08-31T00:04:26.213Z,961.91
2022-08-31T00:05:26.157Z,961.86
2022-08-31T00:06:27.493Z,961.88
2022-08-31T00:07:26.193Z,961.91
2022-08-31T00:08:26.156Z,961.9
2022-08-31T00:09:26.115Z,961.89
2022-08-31T00:10:32.083Z,961.85
2022-08-31T00:11:26.327Z,961.88
2022-08-31T00:12:26.153Z,961.85
2022-08-31T00:13:26.200Z,961.87
2022-08-31T00:14:26.108Z,961.83
2022-08-31T00:15:26.273Z,961.8
2022-08-31T00:16:26.224Z,961.82
2022-08-31T00:17:27.565Z,961.85
2022-08-31T00:18:26.241Z,961.82
2022-08-31T00:19:26.208Z,961.83
2022-08-31T00:20:32.926Z,961.84
2022-08-31T00:21:26.326Z,961.79
2022-08-31T00:22:26.134Z,961.8
2022-08-31T00:24:26.132Z,961.81
2022-08-31T00:25:26.217Z,961.79
2022-08-31T00:26:26.138Z,961.84
2022-08-31T00:28:26.230Z,961.83
2022-08-31T00:30:26.143Z,961.91
2022-08-31T00:31:26.281Z,961.87
2022-08-31T00:32:28.805Z,961.88
2022-08-31T00:33:26.259Z,961.86
2022-08-31T00:34:26.224Z,961.88
2022-08-31T00:35:26.153Z,961.89
2022-08-31T00:37:26.165Z,961.9
2022-08-31T00:38:27.216Z,961.89
2022-08-31T00:39:26.163Z,961.9
2022-08-31T00:40:26.458Z,961.88
2022-08-31T00:41:26.171Z,961.89
2022-08-31T00:43:26.240Z,961.85
2022-08-31T00:44:26.196Z,961.89
2022-08-31T00:45:26.301Z,961.86
2022-08-31T00:46:26.243Z,961.88
2022-08-31T00:47:26.207Z,961.89
2022-08-31T00:48:26.283Z,961.85
2022-08-31T00:49:26.373Z,961.89
2022-08-31T00:51:26.283Z,961.88
2022-08-31T00:52:26.248Z,961.86
2022-08-31T00:54:26.300Z,961.87
2022-08-31T00:55:26.265Z,961.86
2022-08-31T00:56:26.233Z,961.88
2022-08-31T00:57:32.046Z,961.86
2022-08-31T00:59:26.531Z,961.88
2022-08-31T01:00:26.225Z,961.83
2022-08-31T01:01:26.245Z,961.86
2022-08-31T01:02:26.285Z,961.87
2022-08-31T01:03:26.240Z,961.83
2022-08-31T01:05:26.234Z,961.82
2022-08-31T01:06:26.239Z,961.83
2022-08-31T01:07:27.391Z,961.87
2022-08-31T01:08:27.083Z,961.86
2022-08-31T01:09:26.628Z,961.85
2022-08-31T01:10:26.241Z,961.87
2022-08-31T01:11:26.259Z,961.89
2022-08-31T01:12:26.316Z,961.86
2022-08-31T01:13:26.280Z,961.9
2022-08-31T01:14:26.262Z,961.92
2022-08-31T01:15:26.256Z,961.95
2022-08-31T01:16:26.447Z,961.94
2022-08-31T01:18:26.420Z,961.92
2022-08-31T01:19:26.313Z,961.95
2022-08-31T01:21:27.463Z,961.97
2022-08-31T01:22:26.399Z,961.99
2022-08-31T01:24:27.483Z,962.01
2022-08-31T01:25:32.584Z,961.98
2022-08-31T01:26:26.487Z,962.01
2022-08-31T01:27:26.438Z,962.02
2022-08-31T01:28:26.410Z,962.06
2022-08-31T01:30:28.015Z,962.09
2022-08-31T01:31:26.538Z,962.1
2022-08-31T01:32:26.382Z,962.09
2022-08-31T01:33:26.444Z,962.14
2022-08-31T01:34:26.411Z,962.09
2022-08-31T01:35:26.378Z,962.08
2022-08-31T01:36:26.447Z,962.09
2022-08-31T01:37:29.108Z,962.11
2022-08-31T01:38:26.564Z,962.1
2022-08-31T01:39:26.324Z,962.12
2022-08-31T01:40:26.452Z,962.1
2022-08-31T01:41:26.386Z,962.12
2022-08-31T01:43:26.429Z,962.15
2022-08-31T01:44:26.331Z,962.12
2022-08-31T01:45:26.336Z,962.11
2022-08-31T01:47:26.500Z,962.09
2022-08-31T01:48:26.460Z,962.1
2022-08-31T01:49:26.432Z,962.07
2022-08-31T01:51:26.336Z,962.08
2022-08-31T01:52:27.683Z,962.07
2022-08-31T01:53:26.515Z,962.06
2022-08-31T01:54:26.368Z,962.08
2022-08-31T01:55:26.353Z,962.11
2022-08-31T01:56:26.352Z,962.1
2022-08-31T01:57:32.953Z,962.11
2022-08-31T01:58:26.505Z,962.12
2022-08-31T01:59:26.521Z,962.07
2022-08-31T02:00:26.485Z,962.06
2022-08-31T02:01:33.354Z,962.09
2022-08-31T02:03:26.784Z,962.06
2022-08-31T02:04:26.453Z,962.08
2022-08-31T02:05:26.415Z,962.09
2022-08-31T02:08:26.582Z,962.1
2022-08-31T02:10:26.481Z,962.09
2022-08-31T02:11:26.428Z,962.07
2022-08-31T02:12:26.505Z,962.09
2022-08-31T02:13:26.472Z,962.06
2022-08-31T02:14:26.417Z,962.1
2022-08-31T02:15:26.512Z,962.07
2022-08-31T02:17:26.466Z,962.08
2022-08-31T02:20:26.424Z,962.1
2022-08-31T02:21:26.422Z,962.09
2022-08-31T02:22:26.449Z,962.1
2022-08-31T02:23:26.445Z,962.14
2022-08-31T02:24:26.529Z,962.1
2022-08-31T02:25:26.587Z,962.12
2022-08-31T02:26:26.440Z,962.18
2022-08-31T02:27:26.440Z,962.17
2022-08-31T02:28:26.606Z,962.14
2022-08-31T02:29:26.468Z,962.21
2022-08-31T02:30:26.528Z,962.18
2022-08-31T02:31:26.543Z,962.2
2022-08-31T02:32:26.562Z,962.22
2022-08-31T02:33:26.527Z,962.2
2022-08-31T02:34:26.600Z,962.22
2022-08-31T02:35:26.566Z,962.25
2022-08-31T02:36:26.536Z,962.3
2022-08-31T02:37:26.496Z,962.26
2022-08-31T02:38:26.672Z,962.27
2022-08-31T02:39:26.455Z,962.3
2022-08-31T02:40:26.670Z,962.26
2022-08-31T02:41:26.571Z,962.3
2022-08-31T02:42:28.982Z,962.29
2022-08-31T02:45:26.544Z,962.28
2022-08-31T02:46:26.631Z,962.27
2022-08-31T02:47:26.573Z,962.26
2022-08-31T02:48:26.556Z,962.28
2022-08-31T02:50:26.585Z,962.29
2022-08-31T02:52:26.536Z,962.24
2022-08-31T02:53:26.506Z,962.25
2022-08-31T02:54:26.503Z,962.28
2022-08-31T02:55:26.517Z,962.23
2022-08-31T02:56:26.594Z,962.26
2022-08-31T02:57:26.562Z,962.24
2022-08-31T02:58:26.526Z,962.26
2022-08-31T02:59:26.597Z,962.25
2022-08-31T03:00:26.567Z,962.27
2022-08-31T03:01:26.679Z,962.29
2022-08-31T03:02:31.979Z,962.3
2022-08-31T03:03:26.763Z,962.28
2022-08-31T03:04:26.630Z,962.32
2022-08-31T03:06:28.076Z,962.34
2022-08-31T03:07:26.642Z,962.31
2022-08-31T03:08:26.613Z,962.28
2022-08-31T03:10:26.650Z,962.31
2022-08-31T03:11:26.618Z,962.28
2022-08-31T03:12:26.585Z,962.29
2022-08-31T03:14:26.626Z,962.27
2022-08-31T03:15:26.877Z,962.26
2022-08-31T03:16:26.593Z,962.27
2022-08-31T03:17:26.616Z,962.28
2022-08-31T03:18:26.687Z,962.24
2022-08-31T03:19:26.657Z,962.26
2022-08-31T03:21:26.593Z,962.28
2022-08-31T03:22:26.664Z,962.25
2022-08-31T03:23:26.628Z,962.29
2022-08-31T03:24:27.240Z,962.27
2022-08-31T03:25:26.668Z,962.28
2022-08-31T03:26:27.676Z,962.27
2022-08-31T03:27:26.603Z,962.31
2022-08-31T03:29:27.695Z,962.32
2022-08-31T03:31:26.738Z,962.3
2022-08-31T03:32:26.765Z,962.29
2022-08-31T03:33:26.713Z,962.31
2022-08-31T03:34:26.688Z,962.27
2022-08-31T03:35:26.747Z,962.28
2022-08-31T03:37:26.681Z,962.26
2022-08-31T03:38:26.755Z,962.27
2022-08-31T03:39:26.725Z,962.23
2022-08-31T03:40:26.758Z,962.24
2022-08-31T03:41:26.769Z,962.23
2022-08-31T03:42:26.721Z,962.27
2022-08-31T03:44:27.899Z,962.24
2022-08-31T03:45:26.629Z,962.28
2022-08-31T03:46:26.727Z,962.27
2022-08-31T03:47:28.356Z,962.26
2022-08-31T03:48:26.780Z,962.28
2022-08-31T03:50:26.693Z,962.29
2022-08-31T03:51:26.774Z,962.31
2022-08-31T03:53:30.817Z,962.35
2022-08-31T03:54:26.746Z,962.31
2022-08-31T03:56:26.665Z,962.36
2022-08-31T03:57:26.751Z,962.37
2022-08-31T03:58:27.843Z,962.39
2022-08-31T03:59:26.659Z,962.37
2022-08-31T04:00:26.750Z,962.4
2022-08-31T04:01:26.692Z,962.35
2022-08-31T04:02:26.904Z,962.36
2022-08-31T04:03:26.749Z,962.37
2022-08-31T04:04:26.673Z,962.36
2022-08-31T04:05:26.681Z,962.38
2022-08-31T04:06:26.764Z,962.23
2022-08-31T04:07:26.821Z,962.37
2022-08-31T04:08:26.697Z,962.39
2022-08-31T04:09:26.767Z,962.41
2022-08-31T04:10:26.872Z,962.33
2022-08-31T04:11:40.520Z,962.41
2022-08-31T04:12:26.961Z,962.43
2022-08-31T04:13:29.514Z,962.44
2022-08-31T04:14:26.650Z,962.46
2022-08-31T04:15:26.917Z,962.44
2022-08-31T04:16:26.878Z,962.41
2022-08-31T04:17:26.826Z,962.45
2022-08-31T04:18:26.712Z,962.41
2022-08-31T04:19:26.725Z,962.44
2022-08-31T04:20:29.418Z,962.42
2022-08-31T04:21:26.789Z,962.39
2022-08-31T04:22:26.849Z,962.41
2022-08-31T04:23:26.814Z,962.39
2022-08-31T04:24:26.722Z,962.38
2022-08-31T04:25:27.984Z,962.45
2022-08-31T04:26:26.814Z,962.38
2022-08-31T04:27:26.782Z,962.43
2022-08-31T04:28:26.732Z,962.42
2022-08-31T04:30:26.744Z,962.43
2022-08-31T04:31:26.833Z,962.44
2022-08-31T04:32:26.738Z,962.45
2022-08-31T04:33:26.751Z,962.44
2022-08-31T04:34:26.744Z,962.41
2022-08-31T04:35:26.760Z,962.42
2022-08-31T04:37:26.870Z,962.4
2022-08-31T04:38:26.835Z,962.38
2022-08-31T04:39:26.907Z,962.36
2022-08-31T04:40:27.011Z,962.41
2022-08-31T04:41:26.844Z,962.38
2022-08-31T04:42:26.913Z,962.4
2022-08-31T04:43:26.882Z,962.39
2022-08-31T04:44:26.847Z,962.4
2022-08-31T04:45:26.974Z,962.39
2022-08-31T04:46:26.880Z,962.41
2022-08-31T04:48:26.784Z,962.42
2022-08-31T04:49:26.889Z,962.44
2022-08-31T04:50:26.853Z,962.39
2022-08-31T04:52:28.201Z,962.38
2022-08-31T04:53:26.948Z,962.37
2022-08-31T04:54:26.938Z,962.38
2022-08-31T04:56:27.058Z,962.36
2022-08-31T04:57:28.198Z,962.33
2022-08-31T04:58:26.809Z,962.38
2022-08-31T04:59:26.819Z,962.36
2022-08-31T05:00:26.816Z,962.4
2022-08-31T05:01:26.933Z,962.39
2022-08-31T05:02:27.014Z,962.4
2022-08-31T05:03:26.945Z,962.43
2022-08-31T05:04:26.820Z,962.42
2022-08-31T05:05:26.821Z,962.44
2022-08-31T05:06:26.947Z,962.42
2022-08-31T05:07:26.826Z,962.45
2022-08-31T05:08:26.977Z,962.46
2022-08-31T05:09:26.857Z,962.39
2022-08-31T05:10:26.918Z,962.45
2022-08-31T05:11:26.834Z,962.44
2022-08-31T05:13:26.840Z,962.38
2022-08-31T05:14:26.993Z,962.4
2022-08-31T05:15:26.843Z,962.39
2022-08-31T05:16:26.994Z,962.37
2022-08-31T05:17:27.823Z,962.32
2022-08-31T05:18:26.966Z,962.35
2022-08-31T05:20:26.865Z,962.33
2022-08-31T05:21:26.967Z,962.35
2022-08-31T05:24:26.968Z,962.34
2022-08-31T05:26:27.005Z,962.35
2022-08-31T05:27:26.976Z,962.34
2022-08-31T05:28:26.936Z,962.36
2022-08-31T05:29:27.008Z,962.35
2022-08-31T05:30:26.983Z,962.37
2022-08-31T05:32:26.903Z,962.39
2022-08-31T05:33:26.897Z,962.41
2022-08-31T05:34:26.905Z,962.39
2022-08-31T05:35:26.899Z,962.41
2022-08-31T05:36:26.986Z,962.39
2022-08-31T05:37:27.059Z,962.41
2022-08-31T05:38:26.908Z,962.4
2022-08-31T05:39:26.992Z,962.39
2022-08-31T05:40:26.997Z,962.41
2022-08-31T05:41:27.016Z,962.42
2022-08-31T05:43:26.917Z,962.45
2022-08-31T05:45:27.003Z,962.46
2022-08-31T05:46:26.968Z,962.49
2022-08-31T05:47:26.933Z,962.48
2022-08-31T05:48:29.934Z,962.5
2022-08-31T05:49:28.022Z,962.48
2022-08-31T05:50:27.049Z,962.51
2022-08-31T05:51:27.003Z,962.52
2022-08-31T05:52:28.526Z,962.53
2022-08-31T05:53:27.046Z,962.54
2022-08-31T05:54:26.939Z,962.53
2022-08-31T05:55:26.960Z,962.56
2022-08-31T05:56:27.046Z,962.52
2022-08-31T05:57:27.381Z,962.51
2022-08-31T05:58:26.986Z,962.52
2022-08-31T05:59:27.047Z,962.51
2022-08-31T06:00:27.016Z,962.54
2022-08-31T06:03:27.055Z,962.58
2022-08-31T06:04:26.982Z,962.59
2022-08-31T06:05:27.108Z,962.58
2022-08-31T06:06:27.044Z,962.59
2022-08-31T06:07:27.098Z,962.61
2022-08-31T06:08:27.188Z,962.62
2022-08-31T06:09:26.987Z,962.6
2022-08-31T06:10:27.127Z,962.61
2022-08-31T06:11:27.001Z,962.62
2022-08-31T06:12:26.997Z,962.61
2022-08-31T06:13:27.102Z,962.64
2022-08-31T06:14:27.074Z,962.6
2022-08-31T06:15:27.136Z,962.63
2022-08-31T06:16:27.204Z,962.61
2022-08-31T06:17:27.047Z,962.63
2022-08-31T06:18:27.010Z,962.64
2022-08-31T06:19:27.119Z,962.67
2022-08-31T06:20:27.244Z,962.65
2022-08-31T06:21:27.164Z,962.64
2022-08-31T06:22:27.015Z,962.63
2022-08-31T06:23:27.016Z,962.67
2022-08-31T06:24:27.055Z,962.64
2022-08-31T06:25:27.124Z,962.66
2022-08-31T06:26:27.093Z,962.69
2022-08-31T06:30:27.243Z,962.7
2022-08-31T06:31:27.196Z,962.69
2022-08-31T06:32:27.040Z,962.72
2022-08-31T06:33:27.052Z,962.71
2022-08-31T06:34:27.141Z,962.7
2022-08-31T06:35:27.102Z,962.73
2022-08-31T06:36:27.177Z,962.67
2022-08-31T06:37:27.059Z,962.72
2022-08-31T06:38:27.051Z,962.74
2022-08-31T06:39:27.176Z,962.73
2022-08-31T06:40:27.241Z,962.76
2022-08-31T06:41:27.126Z,962.74
2022-08-31T06:42:27.192Z,962.72
2022-08-31T06:43:27.134Z,962.75
2022-08-31T06:45:27.183Z,962.76
2022-08-31T06:46:27.175Z,962.81
2022-08-31T06:47:27.087Z,962.78
2022-08-31T06:48:27.195Z,962.8
2022-08-31T06:50:27.223Z,962.81
2022-08-31T06:51:27.192Z,962.8
2022-08-31T06:52:27.083Z,962.78
2022-08-31T06:53:27.156Z,962.83
2022-08-31T06:54:29.705Z,962.82
2022-08-31T06:55:27.163Z,962.83
2022-08-31T06:56:28.351Z,962.81
2022-08-31T06:57:27.193Z,962.86
2022-08-31T06:58:27.126Z,962.82
2022-08-31T06:59:29.050Z,962.86
2022-08-31T07:00:27.120Z,962.85
2022-08-31T07:01:32.577Z,962.88
2022-08-31T07:02:28.613Z,962.86
2022-08-31T07:03:27.119Z,962.91
2022-08-31T07:04:27.129Z,962.9
2022-08-31T07:05:27.259Z,962.93
2022-08-31T07:07:27.181Z,962.91
2022-08-31T07:08:27.136Z,962.93
2022-08-31T07:09:27.134Z,962.91
2022-08-31T07:12:27.228Z,962.92
2022-08-31T07:14:27.259Z,962.96
2022-08-31T07:15:27.218Z,962.91
2022-08-31T07:16:27.207Z,962.9
2022-08-31T07:18:27.218Z,962.92
2022-08-31T07:19:28.505Z,962.93
2022-08-31T07:20:27.264Z,962.95
2022-08-31T07:21:27.238Z,962.92
2022-08-31T07:22:27.303Z,962.9
2022-08-31T07:23:27.159Z,962.92
2022-08-31T07:24:27.224Z,962.93
2022-08-31T07:26:27.290Z,962.96
2022-08-31T07:28:27.316Z,962.92
2022-08-31T07:30:27.412Z,962.94
2022-08-31T07:31:28.709Z,962.95
2022-08-31T07:32:27.287Z,962.91
2022-08-31T07:33:27.357Z,962.95
2022-08-31T07:34:27.213Z,962.94
2022-08-31T07:35:27.287Z,962.97
2022-08-31T07:37:27.341Z,962.98
2022-08-31T07:38:27.201Z,962.95
2022-08-31T07:39:27.254Z,963.02
2022-08-31T07:40:27.402Z,962.97
2022-08-31T07:42:27.215Z,963.01
2022-08-31T07:43:27.219Z,962.97
2022-08-31T07:44:27.301Z,962.99
2022-08-31T07:45:29.474Z,962.98
2022-08-31T07:46:27.492Z,963.01
2022-08-31T07:48:27.274Z,963.03
2022-08-31T07:49:27.337Z,963.02
2022-08-31T07:50:27.229Z,963.03
2022-08-31T07:52:27.339Z,963.01
2022-08-31T07:53:27.312Z,963.07
2022-08-31T07:54:27.386Z,963.05
2022-08-31T07:55:27.352Z,963.06
2022-08-31T07:57:27.384Z,963.11
2022-08-31T07:58:27.357Z,963.1
2022-08-31T07:59:27.314Z,963.12
2022-08-31T08:00:27.382Z,963.14
2022-08-31T08:01:27.381Z,963.11
2022-08-31T08:02:27.405Z,963.12
2022-08-31T08:04:27.368Z,963.13
2022-08-31T08:05:28.694Z,963.15
2022-08-31T08:06:27.657Z,963.17
2022-08-31T08:07:27.362Z,963.14
2022-08-31T08:08:27.428Z,963.15
2022-08-31T08:09:27.411Z,963.16
2022-08-31T08:10:27.284Z,963.13
2022-08-31T08:11:28.306Z,963.15
2022-08-31T08:13:27.374Z,963.17
2022-08-31T08:15:27.412Z,963.19
2022-08-31T08:16:27.377Z,963.18
2022-08-31T08:18:27.412Z,963.2
2022-08-31T08:20:34.367Z,963.23
2022-08-31T08:21:27.565Z,963.22
2022-08-31T08:22:48.719Z,963.26
2022-08-31T08:24:27.538Z,963.27
2022-08-31T08:25:27.537Z,963.31
2022-08-31T08:27:27.568Z,963.32
2022-08-31T08:28:38.992Z,963.33
2022-08-31T08:29:27.443Z,963.37
2022-08-31T08:30:27.341Z,963.36
2022-08-31T08:31:27.429Z,963.39
2022-08-31T08:32:28.447Z,963.35
2022-08-31T08:33:27.430Z,963.37
2022-08-31T08:34:31.704Z,963.4
2022-08-31T08:35:27.368Z,963.41
2022-08-31T08:36:27.431Z,963.39
2022-08-31T08:37:47.764Z,963.4
2022-08-31T08:38:27.455Z,963.39
2022-08-31T08:39:27.455Z,963.41
2022-08-31T08:40:27.565Z,963.4
2022-08-31T08:41:27.476Z,963.41
2022-08-31T08:42:27.452Z,963.39
2022-08-31T08:43:30.743Z,963.4
2022-08-31T08:44:27.691Z,963.39
2022-08-31T08:46:34.707Z,963.41
2022-08-31T08:47:38.731Z,963.42
2022-08-31T08:49:27.657Z,963.43
2022-08-31T08:51:27.456Z,963.44
2022-08-31T08:52:27.384Z,963.47
2022-08-31T08:54:27.467Z,963.52
2022-08-31T08:55:27.428Z,963.49
2022-08-31T08:56:33.141Z,963.5
2022-08-31T08:57:27.395Z,963.52
2022-08-31T08:58:28.592Z,963.54
2022-08-31T08:59:27.501Z,963.52
2022-08-31T09:00:27.400Z,963.56
2022-08-31T09:01:27.483Z,963.55
2022-08-31T09:02:27.560Z,963.56
2022-08-31T09:04:27.424Z,963.57
2022-08-31T09:05:27.510Z,963.55
2022-08-31T09:07:27.554Z,963.57
2022-08-31T09:08:27.517Z,963.56
2022-08-31T09:09:27.498Z,963.58
2022-08-31T09:10:27.441Z,963.57
2022-08-31T09:11:27.522Z,963.59
2022-08-31T09:12:27.493Z,963.57
2022-08-31T09:14:27.514Z,963.59
2022-08-31T09:16:27.475Z,963.6
2022-08-31T09:17:27.538Z,963.59
2022-08-31T09:20:27.530Z,963.62
2022-08-31T09:21:27.466Z,963.61
2022-08-31T09:22:27.574Z,963.66
2022-08-31T09:23:27.540Z,963.65
2022-08-31T09:26:27.538Z,963.68
2022-08-31T09:27:27.608Z,963.69
2022-08-31T09:29:27.544Z,963.66
2022-08-31T09:32:27.494Z,963.67
2022-08-31T09:33:28.842Z,963.68
2022-08-31T09:34:27.586Z,963.64
2022-08-31T09:35:27.550Z,963.67
2022-08-31T09:36:27.539Z,963.66
2022-08-31T09:37:27.497Z,963.65
2022-08-31T09:38:27.557Z,963.64
2022-08-31T09:39:28.634Z,963.63
2022-08-31T09:40:27.726Z,963.62
2022-08-31T09:44:28.922Z,963.61
2022-08-31T09:45:27.523Z,963.62
2022-08-31T09:47:27.685Z,963.64
2022-08-31T09:48:27.526Z,963.61
2022-08-31T09:49:27.521Z,963.64
2022-08-31T09:50:27.584Z,963.62
2022-08-31T09:51:27.653Z,963.6
2022-08-31T09:52:27.540Z,963.62
2022-08-31T09:53:27.537Z,963.61
2022-08-31T09:55:27.551Z,963.64
2022-08-31T09:57:27.553Z,963.6
2022-08-31T09:58:27.549Z,963.57
2022-08-31T09:59:27.682Z,963.6
2022-08-31T10:00:27.652Z,963.57
2022-08-31T10:01:27.760Z,963.58
2022-08-31T10:03:27.562Z,963.59
2022-08-31T10:04:27.652Z,963.62
2022-08-31T10:05:27.589Z,963.64
2022-08-31T10:06:27.670Z,963.63
2022-08-31T10:07:27.638Z,963.61
2022-08-31T10:09:27.667Z,963.64
2022-08-31T10:12:27.583Z,963.67
2022-08-31T10:13:27.587Z,963.63
2022-08-31T10:14:27.710Z,963.61
2022-08-31T10:15:27.583Z,963.66
2022-08-31T10:16:27.701Z,963.6
2022-08-31T10:17:31.883Z,963.61
2022-08-31T10:18:27.687Z,963.6
2022-08-31T10:19:27.760Z,963.61
2022-08-31T10:20:30.423Z,963.59
2022-08-31T10:21:27.684Z,963.62
2022-08-31T10:22:27.607Z,963.65
2022-08-31T10:23:27.718Z,963.59
2022-08-31T10:24:27.613Z,963.61
2022-08-31T10:25:27.762Z,963.6
2022-08-31T10:27:27.694Z,963.62
2022-08-31T10:28:27.616Z,963.58
2022-08-31T10:29:27.733Z,963.61
2022-08-31T10:30:27.695Z,963.57
2022-08-31T10:31:28.764Z,963.59
2022-08-31T10:32:27.780Z,963.6
2022-08-31T10:34:27.669Z,963.55
2022-08-31T10:35:27.647Z,963.59
2022-08-31T10:36:27.721Z,963.58
2022-08-31T10:38:27.734Z,963.61
2022-08-31T10:41:27.761Z,963.63
2022-08-31T10:42:27.914Z,963.61
2022-08-31T10:43:27.670Z,963.62
2022-08-31T10:44:27.764Z,963.67
2022-08-31T10:45:27.823Z,963.68
2022-08-31T10:48:27.723Z,963.72
2022-08-31T10:49:27.784Z,963.68
2022-08-31T10:50:27.759Z,963.71
2022-08-31T10:51:27.830Z,963.65
2022-08-31T10:52:27.693Z,963.66
2022-08-31T10:53:27.756Z,963.64
2022-08-31T10:54:27.835Z,963.66
2022-08-31T10:55:27.796Z,963.64
2022-08-31T10:56:27.694Z,963.63
2022-08-31T10:57:31.387Z,963.6
2022-08-31T10:58:27.935Z,963.56
2022-08-31T10:59:27.697Z,963.58
2022-08-31T11:00:27.845Z,963.59
2022-08-31T11:01:27.882Z,963.57
2022-08-31T11:05:27.881Z,963.52
2022-08-31T11:06:27.841Z,963.56
2022-08-31T11:07:27.726Z,963.55
2022-08-31T11:10:27.874Z,963.51
2022-08-31T11:11:27.749Z,963.55
2022-08-31T11:12:28.184Z,963.51
2022-08-31T11:13:27.830Z,963.52
2022-08-31T11:14:28.956Z,963.49
2022-08-31T11:15:27.749Z,963.46
2022-08-31T11:16:27.888Z,963.44
2022-08-31T11:17:27.913Z,963.46
2022-08-31T11:18:27.884Z,963.47
2022-08-31T11:19:27.841Z,963.49
2022-08-31T11:20:27.909Z,963.46
2022-08-31T11:21:27.886Z,963.44
2022-08-31T11:22:27.767Z,963.34
2022-08-31T11:23:27.779Z,963.38
2022-08-31T11:24:27.875Z,963.36
2022-08-31T11:25:27.764Z,963.35
2022-08-31T11:26:27.919Z,963.33
2022-08-31T11:27:27.883Z,963.31
2022-08-31T11:29:29.030Z,963.38
2022-08-31T11:30:27.893Z,963.31
2022-08-31T11:31:27.917Z,963.32
2022-08-31T11:32:29.059Z,963.3
2022-08-31T11:33:27.895Z,963.32
2022-08-31T11:34:27.979Z,963.31
2022-08-31T11:36:27.894Z,963.35
2022-08-31T11:37:28.057Z,963.27
2022-08-31T11:38:28.050Z,963.3
2022-08-31T11:39:27.896Z,963.29
2022-08-31T11:40:27.929Z,963.26
2022-08-31T11:41:27.931Z,963.23
2022-08-31T11:42:27.888Z,963.22
2022-08-31T11:43:27.970Z,963.23
2022-08-31T11:44:27.938Z,963.21
2022-08-31T11:45:27.819Z,963.22
2022-08-31T11:46:27.897Z,963.15
2022-08-31T11:47:27.833Z,963.13
2022-08-31T11:49:28.004Z,963.11
2022-08-31T11:50:27.957Z,963.08
2022-08-31T11:52:27.838Z,963.11
2022-08-31T11:53:27.940Z,963.09
2022-08-31T11:55:27.884Z,963.1
2022-08-31T11:56:27.950Z,963.15
2022-08-31T11:57:27.924Z,963.13
2022-08-31T11:59:27.966Z,963.17
2022-08-31T12:01:29.226Z,963.18
2022-08-31T12:02:27.988Z,963.23
2022-08-31T12:03:27.931Z,963.2
2022-08-31T12:04:27.893Z,963.25
2022-08-31T12:05:27.931Z,963.28
2022-08-31T12:06:27.858Z,963.26
2022-08-31T12:07:28.006Z,963.3
2022-08-31T12:08:27.869Z,963.31
2022-08-31T12:09:27.871Z,963.3
2022-08-31T12:10:29.391Z,963.31
2022-08-31T12:11:27.889Z,963.23
2022-08-31T12:12:27.884Z,963.19
2022-08-31T12:13:27.900Z,963.15
2022-08-31T12:14:27.891Z,963.12
2022-08-31T12:15:27.895Z,963.11
2022-08-31T12:16:27.941Z,963.07
2022-08-31T12:17:27.901Z,963.08
2022-08-31T12:18:28.051Z,963.09
2022-08-31T12:19:27.907Z,963.02
2022-08-31T12:20:27.984Z,963.04
2022-08-31T12:21:29.357Z,963.02
2022-08-31T12:22:28.023Z,963.03
2022-08-31T12:23:30.506Z,963.06
2022-08-31T12:24:29.773Z,963.02
2022-08-31T12:26:27.990Z,962.96
2022-08-31T12:27:28.059Z,962.91
2022-08-31T12:28:29.434Z,962.97
2022-08-31T12:29:27.926Z,962.96
2022-08-31T12:31:28.132Z,962.95
2022-08-31T12:32:28.000Z,962.99
2022-08-31T12:33:27.926Z,962.98
2022-08-31T12:34:28.055Z,962.97
2022-08-31T12:35:27.935Z,963.01
2022-08-31T12:36:28.078Z,963.03
2022-08-31T12:37:27.946Z,963.05
2022-08-31T12:39:27.982Z,963.1
2022-08-31T12:40:27.977Z,963.11
2022-08-31T12:41:27.950Z,963.08
2022-08-31T12:42:27.969Z,963.07
2022-08-31T12:43:28.050Z,963.08
2022-08-31T12:44:27.965Z,963.03
2022-08-31T12:46:28.103Z,962.98
2022-08-31T12:47:27.967Z,962.96
2022-08-31T12:48:27.975Z,963.02
2022-08-31T12:49:28.069Z,962.99
2022-08-31T12:50:28.012Z,962.95
2022-08-31T12:51:28.093Z,962.92
2022-08-31T12:52:27.991Z,962.93
2022-08-31T12:53:28.025Z,962.96
2022-08-31T12:54:28.103Z,962.95
2022-08-31T12:55:28.080Z,962.96
2022-08-31T12:56:28.132Z,962.95
2022-08-31T12:57:28.101Z,962.94
2022-08-31T12:58:28.069Z,962.97
2022-08-31T12:59:40.947Z,962.98
2022-08-31T13:00:28.109Z,962.96
2022-08-31T13:02:28.228Z,962.95
2022-08-31T13:03:28.011Z,962.92
2022-08-31T13:04:28.090Z,962.91
2022-08-31T13:05:29.132Z,962.88
2022-08-31T13:06:28.122Z,962.9
2022-08-31T13:07:28.081Z,962.85
2022-08-31T13:08:28.155Z,962.87
2022-08-31T13:10:28.082Z,962.84
2022-08-31T13:11:31.128Z,962.86
2022-08-31T13:12:28.131Z,962.85
2022-08-31T13:13:28.124Z,962.82
2022-08-31T13:14:28.059Z,962.86
2022-08-31T13:15:28.131Z,962.85
2022-08-31T13:16:28.117Z,962.83
2022-08-31T13:17:28.177Z,962.8
2022-08-31T13:18:28.125Z,962.82
2022-08-31T13:19:28.208Z,962.84
2022-08-31T13:20:28.169Z,962.83
2022-08-31T13:21:28.128Z,962.82
2022-08-31T13:22:28.221Z,962.84
2022-08-31T13:23:28.174Z,962.83
2022-08-31T13:25:29.277Z,962.8
2022-08-31T13:26:28.069Z,962.82
2022-08-31T13:27:28.076Z,962.81
2022-08-31T13:28:28.214Z,962.73
2022-08-31T13:29:28.183Z,962.7
2022-08-31T13:30:28.182Z,962.72
2022-08-31T13:31:28.141Z,962.7
2022-08-31T13:32:28.197Z,962.71
2022-08-31T13:33:28.084Z,962.7
2022-08-31T13:34:28.226Z,962.67
2022-08-31T13:35:28.196Z,962.7
2022-08-31T13:36:28.094Z,962.75
2022-08-31T13:37:28.111Z,962.77
2022-08-31T13:38:28.195Z,962.79
2022-08-31T13:39:28.096Z,962.84
2022-08-31T13:40:28.164Z,962.85
2022-08-31T13:41:28.127Z,962.88
2022-08-31T13:42:28.110Z,962.79
2022-08-31T13:43:28.231Z,962.73
2022-08-31T13:44:28.123Z,962.69
2022-08-31T13:45:28.115Z,962.67
2022-08-31T13:46:41.759Z,962.64
2022-08-31T13:47:28.202Z,962.57
2022-08-31T13:48:28.279Z,962.56
2022-08-31T13:49:28.237Z,962.53
2022-08-31T13:50:28.208Z,962.55
2022-08-31T13:51:28.289Z,962.54
2022-08-31T13:53:28.211Z,962.53
2022-08-31T13:54:28.185Z,962.56
2022-08-31T13:55:28.252Z,962.59
2022-08-31T13:56:30.737Z,962.61
2022-08-31T13:58:28.152Z,962.62
2022-08-31T13:59:28.225Z,962.66
2022-08-31T14:00:28.192Z,962.62
2022-08-31T14:01:28.329Z,962.64
2022-08-31T14:02:28.242Z,962.6
2022-08-31T14:03:28.508Z,962.59
2022-08-31T14:04:28.164Z,962.6
2022-08-31T14:05:28.224Z,962.56
2022-08-31T14:06:28.290Z,962.6
2022-08-31T14:07:28.177Z,962.57
2022-08-31T14:08:28.231Z,962.61
2022-08-31T14:09:28.202Z,962.67
2022-08-31T14:10:28.183Z,962.69
2022-08-31T14:11:28.347Z,962.71
2022-08-31T14:12:28.182Z,962.74
2022-08-31T14:13:28.190Z,962.72
2022-08-31T14:14:28.216Z,962.67
2022-08-31T14:15:28.188Z,962.6
2022-08-31T14:16:28.232Z,962.54
2022-08-31T14:17:28.412Z,962.53
2022-08-31T14:19:28.287Z,962.56
2022-08-31T14:20:28.324Z,962.54
2022-08-31T14:22:28.280Z,962.57
2022-08-31T14:24:28.323Z,962.59
2022-08-31T14:25:28.286Z,962.64
2022-08-31T14:26:28.229Z,962.68
2022-08-31T14:27:28.253Z,962.72
2022-08-31T14:28:28.232Z,962.59
2022-08-31T14:29:28.283Z,962.57
2022-08-31T14:30:28.395Z,962.65
2022-08-31T14:31:28.261Z,962.56
2022-08-31T14:32:28.378Z,962.69
2022-08-31T14:33:28.338Z,962.68
2022-08-31T14:34:28.238Z,962.62
2022-08-31T14:35:28.261Z,962.67
2022-08-31T14:36:28.252Z,962.68
2022-08-31T14:37:28.238Z,962.55
2022-08-31T14:38:28.255Z,962.65
2022-08-31T14:39:28.349Z,962.64
2022-08-31T14:40:28.412Z,962.61
2022-08-31T14:41:28.385Z,962.57
2022-08-31T14:42:28.386Z,962.56
2022-08-31T14:43:28.312Z,962.55
2022-08-31T14:44:28.281Z,962.56
2022-08-31T14:45:28.276Z,962.55